createdAt,value
2022-11-15T00:00:52.518Z,134.88
2022-11-15T00:05:48.978Z,139.38
2022-11-15T00:10:54.845Z,136.68
2022-11-15T00:15:51.125Z,136.57
2022-11-15T00:20:47.375Z,138.48
2022-11-15T00:25:43.562Z,135.63
2022-11-15T00:30:39.965Z,138.65
2022-11-15T00:35:36.307Z,141.55
2022-11-15T00:40:32.595Z,138.18
2022-11-15T00:45:28.832Z,135.60
2022-11-15T00:50:25.018Z,138.23
2022-11-15T00:55:21.298Z,135.15
2022-11-15T01:00:17.620Z,137.38
2022-11-15T01:05:13.803Z,139.73
2022-11-15T01:10:10.055Z,143.80
2022-11-15T01:15:06.381Z,138.27
2022-11-15T01:20:02.871Z,138.88
2022-11-15T01:24:59.153Z,136.10
2022-11-15T01:29:55.340Z,138.95
2022-11-15T01:34:51.523Z,131.82
2022-11-15T01:39:47.756Z,130.65
2022-11-15T01:44:54.068Z,131.68
2022-11-15T01:49:58.441Z,134.93
2022-11-15T01:54:57.395Z,135.25
2022-11-15T01:59:53.815Z,133.75
2022-11-15T02:04:50.099Z,134.40
2022-11-15T02:09:46.597Z,136.75
2022-11-15T02:14:44.489Z,132.18
2022-11-15T02:19:48.669Z,138.18
2022-11-15T02:24:44.901Z,138.20
2022-11-15T02:29:41.178Z,136.80
2022-11-15T02:34:46.416Z,135.93
2022-11-15T02:39:45.484Z,133.65
2022-11-15T02:44:44.378Z,139.00
2022-11-15T02:50:00.893Z,135.45
2022-11-15T02:55:01.685Z,132.68
2022-11-15T03:00:00.642Z,133.10
2022-11-15T03:04:58.488Z,134.57
2022-11-15T03:10:12.444Z,135.95
2022-11-15T03:15:24.097Z,133.50
2022-11-15T03:20:20.711Z,133.90
2022-11-15T03:25:21.835Z,131.48
2022-11-15T03:30:18.871Z,131.77
2022-11-15T03:35:16.205Z,136.00
2022-11-15T03:40:12.699Z,141.23
2022-11-15T03:45:11.618Z,136.25
2022-11-15T03:50:13.739Z,139.18
2022-11-15T03:55:12.113Z,136.48
2022-11-15T04:00:08.712Z,141.10
2022-11-15T04:05:05.327Z,137.88
2022-11-15T04:10:04.420Z,135.65
2022-11-15T04:15:08.384Z,139.27
2022-11-15T04:20:24.114Z,146.07
2022-11-15T04:25:23.523Z,141.70
2022-11-15T04:30:20.929Z,141.93
2022-11-15T04:35:17.171Z,143.35
2022-11-15T04:40:13.394Z,142.43
2022-11-15T04:45:10.056Z,139.48
2022-11-15T04:50:06.533Z,143.20
2022-11-15T04:55:07.928Z,141.18
2022-11-15T05:00:05.723Z,138.97
2022-11-15T05:05:01.970Z,138.10
2022-11-15T05:09:58.161Z,134.80
2022-11-15T05:14:54.385Z,137.60
2022-11-15T05:19:50.561Z,128.50
2022-11-15T05:24:46.797Z,139.82
2022-11-15T05:29:42.979Z,135.63
2022-11-15T05:34:39.262Z,133.45
2022-11-15T05:39:35.535Z,136.05
2022-11-15T05:44:32.097Z,132.98
2022-11-15T05:49:32.847Z,132.40
2022-11-15T05:54:29.030Z,132.45
2022-11-15T05:59:25.396Z,131.95
2022-11-15T06:04:21.591Z,133.45
2022-11-15T06:09:17.902Z,132.18
2022-11-15T06:14:14.090Z,127.47
2022-11-15T06:19:10.275Z,129.60
2022-11-15T06:24:07.053Z,125.72
2022-11-15T06:29:04.522Z,120.93
2022-11-15T06:34:00.714Z,123.47
2022-11-15T06:38:57.405Z,123.18
2022-11-15T06:43:53.615Z,120.60
2022-11-15T06:48:51.846Z,114.70
2022-11-15T06:53:48.068Z,119.95
2022-11-15T06:58:44.258Z,117.80
2022-11-15T07:03:41.360Z,118.70
2022-11-15T07:08:37.731Z,115.38
2022-11-15T07:13:35.258Z,113.82
2022-11-15T07:18:32.031Z,113.88
2022-11-15T07:23:28.517Z,117.93
2022-11-15T07:28:25.603Z,114.78
2022-11-15T07:33:22.329Z,116.13
2022-11-15T07:38:21.405Z,118.47
2022-11-15T07:43:17.595Z,121.22
2022-11-15T07:48:13.817Z,120.80
2022-11-15T07:53:10.425Z,114.95
2022-11-15T07:58:07.872Z,117.80
2022-11-15T08:03:05.465Z,118.10
2022-11-15T08:08:01.727Z,110.68
2022-11-15T08:12:59.519Z,115.22
2022-11-15T08:17:56.732Z,119.70
2022-11-15T08:22:53.200Z,111.72
2022-11-15T08:27:51.934Z,108.80
2022-11-15T08:32:49.231Z,111.40
2022-11-15T08:37:45.439Z,108.55
2022-11-15T08:42:41.667Z,109.82
2022-11-15T08:47:37.906Z,107.50
2022-11-15T08:52:34.307Z,106.28
2022-11-15T08:57:33.628Z,105.78
2022-11-15T09:02:29.861Z,98.15
2022-11-15T09:07:26.128Z,99.38
2022-11-15T09:12:22.386Z,95.22
2022-11-15T09:17:24.209Z,96.15
2022-11-15T09:22:21.085Z,95.72
2022-11-15T09:32:36.433Z,93.25
2022-11-15T09:37:35.108Z,96.43
2022-11-15T09:42:49.956Z,87.97
2022-11-15T09:48:01.406Z,85.00
2022-11-15T09:52:57.702Z,77.07
2022-11-15T09:58:19.622Z,75.57
2022-11-15T10:03:18.732Z,72.65
2022-11-15T10:08:21.506Z,71.10
2022-11-15T10:13:23.465Z,69.32
2022-11-15T10:18:35.203Z,66.00
2022-11-15T10:23:32.657Z,60.63
2022-11-15T10:28:30.541Z,68.28
2022-11-15T10:33:27.052Z,64.97
2022-11-15T10:38:23.280Z,65.57
2022-11-15T10:43:20.181Z,66.85
2022-11-15T10:48:19.405Z,67.32
2022-11-15T10:53:22.307Z,63.72
2022-11-15T10:58:33.680Z,69.78
2022-11-15T11:03:34.543Z,64.07
2022-11-15T11:08:31.074Z,71.72
2022-11-15T11:13:28.766Z,75.07
2022-11-15T11:18:29.170Z,71.35
2022-11-15T11:24:00.926Z,71.30
2022-11-15T11:28:57.098Z,71.30
2022-11-15T11:33:56.233Z,67.72
2022-11-15T11:39:17.485Z,71.70
2022-11-15T11:44:13.668Z,69.72
2022-11-15T11:49:11.379Z,73.65
2022-11-15T11:54:18.486Z,66.90
2022-11-15T11:59:20.962Z,68.15
2022-11-15T12:04:20.029Z,61.25
2022-11-15T12:09:18.977Z,60.03
2022-11-15T12:14:27.399Z,60.95
2022-11-15T12:19:23.781Z,59.95
2022-11-15T12:24:26.381Z,56.10
2022-11-15T12:29:41.539Z,62.90
2022-11-15T12:34:41.157Z,53.80
2022-11-15T12:40:00.909Z,50.45
2022-11-15T12:45:00.230Z,44.03
2022-11-15T12:49:56.448Z,38.35
2022-11-15T12:54:54.171Z,33.92
2022-11-15T12:59:50.379Z,34.83
2022-11-15T13:04:46.809Z,34.55
2022-11-15T13:09:43.042Z,32.83
2022-11-15T13:14:40.761Z,35.47
2022-11-15T13:19:37.247Z,33.72
2022-11-15T13:24:33.527Z,35.78
2022-11-15T13:29:29.853Z,36.30
2022-11-15T13:34:50.563Z,36.75
2022-11-15T13:39:44.843Z,37.28
2022-11-15T13:44:54.708Z,35.40
2022-11-15T13:49:50.948Z,40.50
2022-11-15T13:54:59.557Z,39.17
2022-11-15T13:59:57.012Z,40.47
2022-11-15T14:05:06.656Z,37.53
2022-11-15T14:10:18.417Z,31.17
2022-11-15T14:15:29.309Z,32.03
2022-11-15T14:20:31.589Z,31.58
2022-11-15T14:25:28.912Z,29.35
2022-11-15T14:30:25.248Z,29.60
2022-11-15T14:35:23.333Z,33.00
2022-11-15T14:40:21.052Z,33.20
2022-11-15T14:45:18.909Z,37.33
2022-11-15T14:50:19.269Z,40.75
2022-11-15T14:55:25.309Z,45.70
2022-11-15T15:00:22.214Z,49.08
2022-11-15T15:05:18.458Z,53.67
2022-11-15T15:10:39.000Z,56.05
2022-11-15T15:15:35.787Z,57.58
2022-11-15T15:20:32.509Z,59.28
2022-11-15T15:25:30.125Z,63.38
2022-11-15T15:30:27.772Z,70.95
2022-11-15T15:35:24.436Z,76.80
2022-11-15T15:40:22.412Z,83.63
2022-11-15T15:45:19.185Z,87.38
2022-11-15T15:50:15.410Z,82.63
2022-11-15T15:55:11.644Z,93.10
2022-11-15T16:00:08.378Z,91.35
2022-11-15T16:05:04.763Z,94.88
2022-11-15T16:10:01.325Z,90.05
2022-11-15T16:14:57.761Z,97.63
2022-11-15T16:19:53.956Z,93.50
2022-11-15T16:24:50.230Z,98.38
2022-11-15T16:29:47.075Z,100.88
2022-11-15T16:34:48.460Z,106.55
2022-11-15T16:39:45.189Z,98.10
2022-11-15T16:44:41.417Z,99.55
2022-11-15T16:49:37.875Z,104.25
2022-11-15T16:54:34.098Z,96.80
2022-11-15T16:59:38.062Z,97.82
2022-11-15T17:04:34.580Z,100.78
2022-11-15T17:09:30.929Z,99.30
2022-11-15T17:14:27.420Z,101.82
2022-11-15T17:19:23.607Z,103.03
2022-11-15T17:24:20.977Z,104.50
2022-11-15T17:29:18.421Z,106.43
2022-11-15T17:34:14.613Z,105.50
2022-11-15T17:39:10.900Z,109.10
2022-11-15T17:44:07.130Z,108.97
2022-11-15T17:49:03.351Z,112.03
2022-11-15T17:53:59.606Z,116.57
2022-11-15T17:58:57.145Z,119.40
2022-11-15T18:03:53.583Z,112.78
2022-11-15T18:08:50.730Z,119.00
2022-11-15T18:13:52.259Z,117.75
2022-11-15T18:18:48.950Z,115.23
2022-11-15T18:23:45.639Z,116.80
2022-11-15T18:28:43.535Z,117.35
2022-11-15T18:33:39.867Z,114.88
2022-11-15T18:38:36.086Z,120.60
2022-11-15T18:43:32.712Z,121.43
2022-11-15T18:48:30.372Z,116.97
2022-11-15T18:53:26.605Z,114.43
2022-11-15T18:58:22.851Z,112.28
2022-11-15T19:03:23.575Z,113.30
2022-11-15T19:08:20.945Z,112.13
2022-11-15T19:13:17.138Z,116.10
2022-11-15T19:18:14.411Z,115.07
2022-11-15T19:23:10.811Z,111.82
2022-11-15T19:28:07.132Z,115.13
2022-11-15T19:33:03.361Z,120.05
2022-11-15T19:37:59.680Z,115.88
2022-11-15T19:42:55.886Z,114.97
2022-11-15T19:47:52.157Z,116.53
2022-11-15T19:52:48.343Z,114.85
2022-11-15T19:57:45.526Z,118.72
2022-11-15T20:02:41.789Z,118.13
2022-11-15T20:07:38.024Z,120.13
2022-11-15T20:12:34.222Z,116.28
2022-11-15T20:17:30.477Z,115.82
2022-11-15T20:22:27.111Z,114.35
2022-11-15T20:27:23.329Z,113.60
2022-11-15T20:32:19.774Z,113.60
2022-11-15T20:37:16.122Z,108.10
2022-11-15T20:42:12.389Z,108.90
2022-11-15T20:47:08.624Z,103.07
2022-11-15T20:52:04.862Z,95.57
2022-11-15T20:57:01.092Z,101.57
2022-11-15T21:01:57.448Z,97.72
2022-11-15T21:06:53.810Z,96.03
2022-11-15T21:12:08.611Z,94.70
2022-11-15T21:17:04.968Z,92.55
2022-11-15T21:22:01.748Z,86.50
2022-11-15T21:26:58.354Z,88.15
2022-11-15T21:31:54.553Z,88.72
2022-11-15T21:36:50.813Z,93.88
2022-11-15T21:41:46.996Z,90.32
2022-11-15T21:46:43.319Z,88.93
2022-11-15T21:51:39.797Z,87.47
2022-11-15T21:56:36.035Z,83.57
2022-11-15T22:01:50.789Z,84.55
2022-11-15T22:06:47.102Z,80.18
2022-11-15T22:11:43.318Z,77.95
2022-11-15T22:16:39.639Z,72.32
2022-11-15T22:21:37.915Z,74.22
2022-11-15T22:26:34.143Z,74.30
2022-11-15T22:31:30.419Z,71.95
2022-11-15T22:36:35.819Z,70.60
2022-11-15T22:41:39.070Z,72.47
2022-11-15T22:46:35.323Z,65.53
2022-11-15T22:51:31.594Z,67.75
2022-11-15T22:56:27.867Z,68.07
2022-11-15T23:01:24.136Z,66.72
2022-11-15T23:06:20.388Z,68.50
2022-11-15T23:11:35.652Z,69.80
2022-11-15T23:16:34.965Z,69.47
2022-11-15T23:21:53.836Z,75.53
2022-11-15T23:26:51.865Z,79.78
2022-11-15T23:32:06.778Z,83.30
2022-11-15T23:37:03.419Z,89.05
2022-11-15T23:42:03.133Z,93.78
2022-11-15T23:47:02.259Z,89.78
2022-11-15T23:51:58.570Z,91.47
2022-11-15T23:56:54.803Z,93.82
